MSC Sinfonia — H8XH — position and weather

sailwx.info

Track history (hours):
 
Tides and Currents Weather Stations Pressure Air Temp Water Temp Dewpoint Dewpoint Depression Visibility Wind Speed Wind Dir Waves Ship Positions

MSC Sinfonia

Last reported at 2016-Sep-27 23:33 UTC. Time now 2016-Sep-28 20:36 UTC.
Position N 37°24' E 025°05'.

Length 251 m; draft 6.8 m.

Type: Passenger vessel. MMSI: 356715971.

Date/timePositionNaut miles runAvg speedWind from/ knotsBaromVisibWave heightAir tempDewpointWater temp
2016-Sep-27 23:33N 37°24' E 025°05'12 3.0
2016-Sep-27 19:32N 37°28' E 025°19'28 5.7
2016-Sep-27 14:33N 36°60' E 025°17'  
2016-Sep-24 19:34N 44°47' E 013°23'1717.2
2016-Sep-24 18:34N 45°00' E 013°08'1717.0
2016-Sep-24 17:34N 45°11' E 012°49'1716.7
2016-Sep-24 16:33N 45°22' E 012°31'10 4.9
2016-Sep-24 14:30N 45°26' E 012°18'0 0.0
2016-Sep-24 12:33N 45°26' E 012°18'0 0.0
2016-Sep-24 10:33N 45°26' E 012°18'0 0.0
2016-Sep-24 09:33N 45°26' E 012°18'42 7.0
2016-Sep-24 03:33N 45°03' E 013°08'1918.7
2016-Sep-24 02:33N 44°50' E 013°27'1919.1
2016-Sep-24 01:33N 44°34' E 013°42'2219.1
2016-Sep-24 00:25N 44°16' E 013°60'20611.5
2016-Sep-23 06:29N 42°32' E 018°05'44514.2
2016-Sep-21 23:12N 37°14' E 024°48'1619.1
2016-Sep-21 22:23N 37°23' E 025°04'13 2.2
2016-Sep-21 16:28N 37°27' E 025°19'0 0.0
2016-Sep-21 09:33N 37°27' E 025°19'0 0.0
2016-Sep-21 08:33N 37°27' E 025°19'77 4.3
2016-Sep-20 14:33N 37°37' E 023°43'7 7.1
2016-Sep-20 13:34N 37°44' E 023°40'12 4.1
2016-Sep-20 10:33N 37°56' E 023°38'0 0.0
2016-Sep-20 08:32N 37°56' E 023°38'0 0.0
2016-Sep-20 07:32N 37°56' E 023°38'0 0.0
2016-Sep-20 06:29N 37°56' E 023°38'32 8.1
2016-Sep-20 02:33N 37°25' E 023°40'  
Track history (hours):
 
Tides and Currents Weather Stations Pressure Air Temp Water Temp Dewpoint Dewpoint Depression Visibility Wind Speed Wind Dir Waves Ship Positions

MSC Sinfonia

Last reported at 2016-Sep-27 23:33 UTC. Time now 2016-Sep-28 20:36 UTC.
Position N 37°24' E 025°05'.

Length 251 m; draft 6.8 m.

Type: Passenger vessel. MMSI: 356715971.

Date/timePositionNaut miles runAvg speedWind from/ knotsBaromVisibWave heightAir tempDewpointWater temp
2016-Sep-27 23:33N 37°24' E 025°05'12 3.0
2016-Sep-27 19:32N 37°28' E 025°19'28 5.7
2016-Sep-27 14:33N 36°60' E 025°17'  
2016-Sep-24 19:34N 44°47' E 013°23'1717.2
2016-Sep-24 18:34N 45°00' E 013°08'1717.0
2016-Sep-24 17:34N 45°11' E 012°49'1716.7
2016-Sep-24 16:33N 45°22' E 012°31'10 4.9
2016-Sep-24 14:30N 45°26' E 012°18'0 0.0
2016-Sep-24 12:33N 45°26' E 012°18'0 0.0
2016-Sep-24 10:33N 45°26' E 012°18'0 0.0
2016-Sep-24 09:33N 45°26' E 012°18'42 7.0
2016-Sep-24 03:33N 45°03' E 013°08'1918.7
2016-Sep-24 02:33N 44°50' E 013°27'1919.1
2016-Sep-24 01:33N 44°34' E 013°42'2219.1
2016-Sep-24 00:25N 44°16' E 013°60'20611.5
2016-Sep-23 06:29N 42°32' E 018°05'44514.2
2016-Sep-21 23:12N 37°14' E 024°48'1619.1
2016-Sep-21 22:23N 37°23' E 025°04'13 2.2
2016-Sep-21 16:28N 37°27' E 025°19'0 0.0
2016-Sep-21 09:33N 37°27' E 025°19'0 0.0
2016-Sep-21 08:33N 37°27' E 025°19'77 4.3
2016-Sep-20 14:33N 37°37' E 023°43'7 7.1
2016-Sep-20 13:34N 37°44' E 023°40'12 4.1
2016-Sep-20 10:33N 37°56' E 023°38'0 0.0
2016-Sep-20 08:32N 37°56' E 023°38'0 0.0
2016-Sep-20 07:32N 37°56' E 023°38'0 0.0
2016-Sep-20 06:29N 37°56' E 023°38'32 8.1
2016-Sep-20 02:33N 37°25' E 023°40'  

Dump ship's entire track history